sensor_id;sensor_type;location;lat;lon;timestamp;P1;durP1;ratioP1;P2;durP2;ratioP2
11582;SDS011;34299;50.820;4.548;2022-09-09T00:01:10;2.43;;;1.10;;
11582;SDS011;34299;50.820;4.548;2022-09-09T00:03:43;1.47;;;1.20;;
11582;SDS011;34299;50.820;4.548;2022-09-09T00:06:16;2.83;;;1.20;;
11582;SDS011;34299;50.820;4.548;2022-09-09T00:08:51;4.17;;;1.20;;
11582;SDS011;34299;50.820;4.548;2022-09-09T00:11:22;6.23;;;1.53;;
11582;SDS011;34299;50.820;4.548;2022-09-09T00:13:52;2.20;;;1.20;;
11582;SDS011;34299;50.820;4.548;2022-09-09T00:16:20;2.33;;;1.20;;
11582;SDS011;34299;50.820;4.548;2022-09-09T00:18:51;1.00;;;0.90;;
11582;SDS011;34299;50.820;4.548;2022-09-09T00:21:20;0.80;;;0.80;;
11582;SDS011;34299;50.820;4.548;2022-09-09T00:23:50;3.37;;;1.47;;
11582;SDS011;34299;50.820;4.548;2022-09-09T00:26:19;2.70;;;1.20;;
11582;SDS011;34299;50.820;4.548;2022-09-09T00:28:50;3.63;;;1.30;;
11582;SDS011;34299;50.820;4.548;2022-09-09T00:31:20;1.17;;;1.00;;
11582;SDS011;34299;50.820;4.548;2022-09-09T00:33:49;3.43;;;1.30;;
11582;SDS011;34299;50.820;4.548;2022-09-09T00:36:18;1.47;;;1.37;;
11582;SDS011;34299;50.820;4.548;2022-09-09T00:38:49;0.77;;;0.77;;
11582;SDS011;34299;50.820;4.548;2022-09-09T00:41:19;1.83;;;1.00;;
11582;SDS011;34299;50.820;4.548;2022-09-09T00:43:51;1.77;;;1.10;;
11582;SDS011;34299;50.820;4.548;2022-09-09T00:46:29;2.27;;;1.03;;
11582;SDS011;34299;50.820;4.548;2022-09-09T00:49:04;3.60;;;1.03;;
11582;SDS011;34299;50.820;4.548;2022-09-09T00:51:36;1.87;;;1.30;;
11582;SDS011;34299;50.820;4.548;2022-09-09T00:54:14;2.00;;;1.20;;
11582;SDS011;34299;50.820;4.548;2022-09-09T00:56:46;1.83;;;1.20;;
11582;SDS011;34299;50.820;4.548;2022-09-09T00:59:16;3.20;;;1.00;;
11582;SDS011;34299;50.820;4.548;2022-09-09T01:01:49;1.50;;;1.13;;
11582;SDS011;34299;50.820;4.548;2022-09-09T01:04:22;1.43;;;1.20;;
11582;SDS011;34299;50.820;4.548;2022-09-09T01:06:52;3.60;;;1.03;;
11582;SDS011;34299;50.820;4.548;2022-09-09T01:09:25;3.00;;;1.07;;
11582;SDS011;34299;50.820;4.548;2022-09-09T01:11:55;1.97;;;1.10;;
11582;SDS011;34299;50.820;4.548;2022-09-09T01:14:35;2.30;;;1.00;;
11582;SDS011;34299;50.820;4.548;2022-09-09T01:17:08;1.00;;;0.83;;
11582;SDS011;34299;50.820;4.548;2022-09-09T01:19:39;2.87;;;1.00;;
11582;SDS011;34299;50.820;4.548;2022-09-09T01:22:09;1.97;;;1.10;;
11582;SDS011;34299;50.820;4.548;2022-09-09T01:24:43;7.30;;;1.60;;
11582;SDS011;34299;50.820;4.548;2022-09-09T01:27:15;3.70;;;1.50;;
11582;SDS011;34299;50.820;4.548;2022-09-09T01:29:42;2.10;;;1.93;;
11582;SDS011;34299;50.820;4.548;2022-09-09T01:34:55;2.07;;;1.20;;
11582;SDS011;34299;50.820;4.548;2022-09-09T01:37:22;1.27;;;1.17;;
11582;SDS011;34299;50.820;4.548;2022-09-09T01:39:49;3.33;;;1.23;;
11582;SDS011;34299;50.820;4.548;2022-09-09T01:42:18;3.53;;;1.10;;
11582;SDS011;34299;50.820;4.548;2022-09-09T01:44:45;3.23;;;1.40;;
11582;SDS011;34299;50.820;4.548;2022-09-09T01:47:12;3.47;;;1.17;;
11582;SDS011;34299;50.820;4.548;2022-09-09T01:49:39;2.60;;;1.40;;
11582;SDS011;34299;50.820;4.548;2022-09-09T01:52:07;3.73;;;1.80;;
11582;SDS011;34299;50.820;4.548;2022-09-09T01:54:34;3.63;;;1.40;;
11582;SDS011;34299;50.820;4.548;2022-09-09T01:57:05;3.67;;;1.57;;
11582;SDS011;34299;50.820;4.548;2022-09-09T01:59:39;3.57;;;1.70;;
11582;SDS011;34299;50.820;4.548;2022-09-09T02:02:09;5.43;;;1.53;;
11582;SDS011;34299;50.820;4.548;2022-09-09T02:04:39;2.80;;;1.20;;
11582;SDS011;34299;50.820;4.548;2022-09-09T02:07:09;3.07;;;1.50;;
11582;SDS011;34299;50.820;4.548;2022-09-09T02:09:37;5.90;;;1.40;;
11582;SDS011;34299;50.820;4.548;2022-09-09T02:12:08;4.10;;;2.07;;
11582;SDS011;34299;50.820;4.548;2022-09-09T02:14:39;2.47;;;1.57;;
11582;SDS011;34299;50.820;4.548;2022-09-09T02:17:09;2.20;;;1.37;;
11582;SDS011;34299;50.820;4.548;2022-09-09T02:19:37;4.47;;;1.40;;
11582;SDS011;34299;50.820;4.548;2022-09-09T02:22:06;4.73;;;1.40;;
11582;SDS011;34299;50.820;4.548;2022-09-09T02:24:35;1.67;;;1.33;;
11582;SDS011;34299;50.820;4.548;2022-09-09T02:27:03;1.80;;;1.03;;
11582;SDS011;34299;50.820;4.548;2022-09-09T02:29:34;5.73;;;1.00;;
11582;SDS011;34299;50.820;4.548;2022-09-09T02:32:03;7.20;;;1.50;;
11582;SDS011;34299;50.820;4.548;2022-09-09T02:34:32;1.90;;;1.10;;
11582;SDS011;34299;50.820;4.548;2022-09-09T02:37:01;4.50;;;2.10;;
11582;SDS011;34299;50.820;4.548;2022-09-09T02:39:29;1.83;;;1.70;;
11582;SDS011;34299;50.820;4.548;2022-09-09T02:41:57;1.57;;;1.03;;
11582;SDS011;34299;50.820;4.548;2022-09-09T02:44:24;5.17;;;1.23;;
11582;SDS011;34299;50.820;4.548;2022-09-09T02:47:07;2.27;;;1.40;;
11582;SDS011;34299;50.820;4.548;2022-09-09T02:49:40;2.00;;;1.33;;
11582;SDS011;34299;50.820;4.548;2022-09-09T02:52:10;3.83;;;1.17;;
11582;SDS011;34299;50.820;4.548;2022-09-09T02:54:40;2.13;;;1.10;;
11582;SDS011;34299;50.820;4.548;2022-09-09T02:57:10;5.90;;;1.20;;
11582;SDS011;34299;50.820;4.548;2022-09-09T02:59:37;2.83;;;1.50;;
11582;SDS011;34299;50.820;4.548;2022-09-09T03:02:06;2.60;;;1.10;;
11582;SDS011;34299;50.820;4.548;2022-09-09T03:04:36;2.27;;;1.17;;
11582;SDS011;34299;50.820;4.548;2022-09-09T03:07:03;5.07;;;1.37;;
11582;SDS011;34299;50.820;4.548;2022-09-09T03:09:30;5.53;;;1.63;;
11582;SDS011;34299;50.820;4.548;2022-09-09T03:11:58;4.10;;;1.00;;
11582;SDS011;34299;50.820;4.548;2022-09-09T03:14:25;7.10;;;1.60;;
11582;SDS011;34299;50.820;4.548;2022-09-09T03:16:53;5.87;;;1.60;;
11582;SDS011;34299;50.820;4.548;2022-09-09T03:19:22;5.30;;;1.40;;
11582;SDS011;34299;50.820;4.548;2022-09-09T03:21:49;2.53;;;1.33;;
11582;SDS011;34299;50.820;4.548;2022-09-09T03:24:17;3.97;;;1.40;;
11582;SDS011;34299;50.820;4.548;2022-09-09T03:26:44;3.70;;;1.47;;
11582;SDS011;34299;50.820;4.548;2022-09-09T03:29:12;5.43;;;1.83;;
11582;SDS011;34299;50.820;4.548;2022-09-09T03:31:40;5.40;;;1.60;;
11582;SDS011;34299;50.820;4.548;2022-09-09T03:34:07;1.23;;;1.13;;
11582;SDS011;34299;50.820;4.548;2022-09-09T03:36:36;2.90;;;1.50;;
11582;SDS011;34299;50.820;4.548;2022-09-09T03:39:03;3.90;;;1.53;;
11582;SDS011;34299;50.820;4.548;2022-09-09T03:41:31;4.53;;;2.00;;
11582;SDS011;34299;50.820;4.548;2022-09-09T03:43:59;3.10;;;1.27;;
11582;SDS011;34299;50.820;4.548;2022-09-09T03:46:26;2.27;;;1.00;;
11582;SDS011;34299;50.820;4.548;2022-09-09T03:48:53;2.73;;;1.53;;
11582;SDS011;34299;50.820;4.548;2022-09-09T03:51:20;6.77;;;1.17;;
11582;SDS011;34299;50.820;4.548;2022-09-09T03:53:49;1.97;;;1.37;;
11582;SDS011;34299;50.820;4.548;2022-09-09T03:56:16;1.97;;;1.57;;
11582;SDS011;34299;50.820;4.548;2022-09-09T03:58:43;11.30;;;2.13;;
11582;SDS011;34299;50.820;4.548;2022-09-09T04:01:11;4.87;;;1.20;;
11582;SDS011;34299;50.820;4.548;2022-09-09T04:03:39;1.10;;;0.90;;
11582;SDS011;34299;50.820;4.548;2022-09-09T04:06:07;4.13;;;1.57;;
11582;SDS011;34299;50.820;4.548;2022-09-09T04:08:35;3.63;;;1.50;;
11582;SDS011;34299;50.820;4.548;2022-09-09T04:11:05;2.10;;;1.30;;
11582;SDS011;34299;50.820;4.548;2022-09-09T04:13:32;2.57;;;1.30;;
11582;SDS011;34299;50.820;4.548;2022-09-09T04:16:00;5.53;;;1.50;;
11582;SDS011;34299;50.820;4.548;2022-09-09T04:18:28;2.97;;;2.17;;
11582;SDS011;34299;50.820;4.548;2022-09-09T04:20:55;1.70;;;1.57;;
11582;SDS011;34299;50.820;4.548;2022-09-09T04:23:23;2.90;;;1.50;;
11582;SDS011;34299;50.820;4.548;2022-09-09T04:25:51;4.07;;;1.40;;
11582;SDS011;34299;50.820;4.548;2022-09-09T04:28:21;5.20;;;1.83;;
11582;SDS011;34299;50.820;4.548;2022-09-09T04:30:48;5.10;;;1.60;;
11582;SDS011;34299;50.820;4.548;2022-09-09T04:33:15;4.23;;;1.90;;
11582;SDS011;34299;50.820;4.548;2022-09-09T04:35:44;7.07;;;2.00;;
11582;SDS011;34299;50.820;4.548;2022-09-09T04:38:12;1.93;;;1.50;;
11582;SDS011;34299;50.820;4.548;2022-09-09T04:40:41;1.23;;;1.13;;
11582;SDS011;34299;50.820;4.548;2022-09-09T04:43:08;6.93;;;1.50;;
11582;SDS011;34299;50.820;4.548;2022-09-09T04:45:37;2.97;;;1.60;;
11582;SDS011;34299;50.820;4.548;2022-09-09T04:48:05;4.60;;;1.53;;
11582;SDS011;34299;50.820;4.548;2022-09-09T04:50:32;3.37;;;1.70;;
11582;SDS011;34299;50.820;4.548;2022-09-09T04:53:00;3.97;;;1.33;;
11582;SDS011;34299;50.820;4.548;2022-09-09T04:55:27;4.13;;;1.60;;
11582;SDS011;34299;50.820;4.548;2022-09-09T04:57:55;3.80;;;2.13;;
11582;SDS011;34299;50.820;4.548;2022-09-09T05:00:23;9.10;;;2.47;;
11582;SDS011;34299;50.820;4.548;2022-09-09T05:02:51;7.70;;;1.97;;
11582;SDS011;34299;50.820;4.548;2022-09-09T05:05:19;11.40;;;2.20;;
11582;SDS011;34299;50.820;4.548;2022-09-09T05:07:46;6.77;;;2.27;;
11582;SDS011;34299;50.820;4.548;2022-09-09T05:10:14;2.43;;;1.63;;
11582;SDS011;34299;50.820;4.548;2022-09-09T05:12:43;3.33;;;1.90;;
11582;SDS011;34299;50.820;4.548;2022-09-09T05:15:18;3.47;;;1.93;;
11582;SDS011;34299;50.820;4.548;2022-09-09T05:17:46;4.57;;;2.17;;
11582;SDS011;34299;50.820;4.548;2022-09-09T05:20:15;2.30;;;1.60;;
11582;SDS011;34299;50.820;4.548;2022-09-09T05:22:42;7.43;;;2.23;;
11582;SDS011;34299;50.820;4.548;2022-09-09T05:25:09;3.10;;;2.07;;
11582;SDS011;34299;50.820;4.548;2022-09-09T05:27:36;3.83;;;2.17;;
11582;SDS011;34299;50.820;4.548;2022-09-09T05:30:04;7.53;;;2.80;;
11582;SDS011;34299;50.820;4.548;2022-09-09T05:32:31;7.47;;;2.17;;
11582;SDS011;34299;50.820;4.548;2022-09-09T05:34:59;6.50;;;2.07;;
11582;SDS011;34299;50.820;4.548;2022-09-09T05:37:27;4.60;;;2.27;;
11582;SDS011;34299;50.820;4.548;2022-09-09T05:39:55;7.37;;;2.27;;
11582;SDS011;34299;50.820;4.548;2022-09-09T05:42:23;3.37;;;1.77;;
11582;SDS011;34299;50.820;4.548;2022-09-09T05:44:50;4.90;;;2.83;;
11582;SDS011;34299;50.820;4.548;2022-09-09T05:47:19;3.03;;;1.87;;
11582;SDS011;34299;50.820;4.548;2022-09-09T05:49:46;6.30;;;1.70;;
11582;SDS011;34299;50.820;4.548;2022-09-09T05:52:14;4.33;;;1.60;;
11582;SDS011;34299;50.820;4.548;2022-09-09T05:54:43;4.37;;;1.80;;
11582;SDS011;34299;50.820;4.548;2022-09-09T05:57:10;7.33;;;2.23;;
11582;SDS011;34299;50.820;4.548;2022-09-09T05:59:37;7.90;;;1.73;;
11582;SDS011;34299;50.820;4.548;2022-09-09T06:02:04;7.80;;;1.77;;
11582;SDS011;34299;50.820;4.548;2022-09-09T06:04:32;7.07;;;1.90;;
11582;SDS011;34299;50.820;4.548;2022-09-09T06:06:59;6.57;;;1.80;;
11582;SDS011;34299;50.820;4.548;2022-09-09T06:09:27;5.63;;;1.77;;
11582;SDS011;34299;50.820;4.548;2022-09-09T06:11:56;10.20;;;1.77;;
11582;SDS011;34299;50.820;4.548;2022-09-09T06:14:24;10.57;;;2.07;;
11582;SDS011;34299;50.820;4.548;2022-09-09T06:16:52;5.70;;;1.87;;
11582;SDS011;34299;50.820;4.548;2022-09-09T06:19:19;6.30;;;2.43;;
11582;SDS011;34299;50.820;4.548;2022-09-09T06:21:46;7.73;;;2.03;;
11582;SDS011;34299;50.820;4.548;2022-09-09T06:24:15;4.23;;;1.40;;
11582;SDS011;34299;50.820;4.548;2022-09-09T06:26:44;4.13;;;1.83;;
11582;SDS011;34299;50.820;4.548;2022-09-09T06:29:13;5.17;;;1.87;;
11582;SDS011;34299;50.820;4.548;2022-09-09T06:31:40;4.40;;;1.90;;
11582;SDS011;34299;50.820;4.548;2022-09-09T06:34:07;9.73;;;1.87;;
11582;SDS011;34299;50.820;4.548;2022-09-09T06:36:36;6.43;;;1.93;;
11582;SDS011;34299;50.820;4.548;2022-09-09T06:39:03;4.90;;;1.70;;
11582;SDS011;34299;50.820;4.548;2022-09-09T06:41:31;4.17;;;1.60;;
11582;SDS011;34299;50.820;4.548;2022-09-09T06:43:59;8.00;;;1.73;;
11582;SDS011;34299;50.820;4.548;2022-09-09T06:46:29;4.37;;;1.50;;
11582;SDS011;34299;50.820;4.548;2022-09-09T06:48:57;6.57;;;1.67;;
11582;SDS011;34299;50.820;4.548;2022-09-09T06:51:26;3.50;;;1.30;;
11582;SDS011;34299;50.820;4.548;2022-09-09T06:53:53;2.53;;;1.53;;
11582;SDS011;34299;50.820;4.548;2022-09-09T06:56:22;4.20;;;1.40;;
11582;SDS011;34299;50.820;4.548;2022-09-09T06:58:50;5.30;;;1.67;;
11582;SDS011;34299;50.820;4.548;2022-09-09T07:01:17;5.77;;;1.60;;
11582;SDS011;34299;50.820;4.548;2022-09-09T07:03:46;7.67;;;1.90;;
11582;SDS011;34299;50.820;4.548;2022-09-09T07:06:16;1.73;;;1.23;;
11582;SDS011;34299;50.820;4.548;2022-09-09T07:08:47;3.03;;;1.83;;
11582;SDS011;34299;50.820;4.548;2022-09-09T07:11:15;3.00;;;1.27;;
11582;SDS011;34299;50.820;4.548;2022-09-09T07:13:42;7.17;;;1.47;;
11582;SDS011;34299;50.820;4.548;2022-09-09T07:16:10;7.57;;;2.10;;
11582;SDS011;34299;50.820;4.548;2022-09-09T07:18:38;2.83;;;1.30;;
11582;SDS011;34299;50.820;4.548;2022-09-09T07:21:08;5.10;;;2.13;;
11582;SDS011;34299;50.820;4.548;2022-09-09T07:23:37;7.60;;;1.60;;
11582;SDS011;34299;50.820;4.548;2022-09-09T07:26:07;3.10;;;1.60;;
11582;SDS011;34299;50.820;4.548;2022-09-09T07:28:34;4.47;;;1.37;;
11582;SDS011;34299;50.820;4.548;2022-09-09T07:31:02;4.10;;;1.80;;
11582;SDS011;34299;50.820;4.548;2022-09-09T07:33:29;2.90;;;1.27;;
11582;SDS011;34299;50.820;4.548;2022-09-09T07:36:01;5.67;;;1.90;;
11582;SDS011;34299;50.820;4.548;2022-09-09T07:38:30;6.60;;;1.90;;
11582;SDS011;34299;50.820;4.548;2022-09-09T07:41:02;3.53;;;1.70;;
11582;SDS011;34299;50.820;4.548;2022-09-09T07:43:30;3.97;;;1.70;;
11582;SDS011;34299;50.820;4.548;2022-09-09T07:45:58;5.47;;;1.83;;
11582;SDS011;34299;50.820;4.548;2022-09-09T07:48:27;3.37;;;1.60;;
11582;SDS011;34299;50.820;4.548;2022-09-09T07:51:02;6.00;;;1.63;;
11582;SDS011;34299;50.820;4.548;2022-09-09T07:53:32;5.60;;;1.63;;
11582;SDS011;34299;50.820;4.548;2022-09-09T07:56:05;7.93;;;1.47;;
11582;SDS011;34299;50.820;4.548;2022-09-09T07:58:34;3.83;;;1.33;;
11582;SDS011;34299;50.820;4.548;2022-09-09T08:01:05;4.50;;;1.87;;
11582;SDS011;34299;50.820;4.548;2022-09-09T08:03:33;4.60;;;2.33;;
11582;SDS011;34299;50.820;4.548;2022-09-09T08:06:00;3.23;;;1.60;;
11582;SDS011;34299;50.820;4.548;2022-09-09T08:08:28;6.33;;;1.80;;
11582;SDS011;34299;50.820;4.548;2022-09-09T08:11:02;2.70;;;1.67;;
11582;SDS011;34299;50.820;4.548;2022-09-09T08:13:30;10.27;;;1.57;;
11582;SDS011;34299;50.820;4.548;2022-09-09T08:16:03;4.83;;;1.97;;
11582;SDS011;34299;50.820;4.548;2022-09-09T08:18:30;4.23;;;1.50;;
11582;SDS011;34299;50.820;4.548;2022-09-09T08:20:57;2.57;;;1.83;;
11582;SDS011;34299;50.820;4.548;2022-09-09T08:23:26;5.33;;;1.63;;
11582;SDS011;34299;50.820;4.548;2022-09-09T08:25:53;3.40;;;1.70;;
11582;SDS011;34299;50.820;4.548;2022-09-09T08:28:23;4.37;;;1.50;;
11582;SDS011;34299;50.820;4.548;2022-09-09T08:30:51;5.20;;;1.80;;
11582;SDS011;34299;50.820;4.548;2022-09-09T08:33:18;4.17;;;1.70;;
11582;SDS011;34299;50.820;4.548;2022-09-09T08:35:49;6.50;;;1.67;;
11582;SDS011;34299;50.820;4.548;2022-09-09T08:38:17;7.47;;;1.60;;
11582;SDS011;34299;50.820;4.548;2022-09-09T08:40:46;4.00;;;1.27;;
11582;SDS011;34299;50.820;4.548;2022-09-09T08:43:15;4.33;;;1.53;;
11582;SDS011;34299;50.820;4.548;2022-09-09T08:45:46;5.17;;;2.03;;
11582;SDS011;34299;50.820;4.548;2022-09-09T08:48:22;2.70;;;1.20;;
11582;SDS011;34299;50.820;4.548;2022-09-09T08:50:56;5.10;;;1.60;;
11582;SDS011;34299;50.820;4.548;2022-09-09T08:53:27;3.30;;;1.23;;
11582;SDS011;34299;50.820;4.548;2022-09-09T08:55:56;7.83;;;1.40;;
11582;SDS011;34299;50.820;4.548;2022-09-09T08:58:25;4.27;;;1.70;;
11582;SDS011;34299;50.820;4.548;2022-09-09T09:01:00;3.80;;;1.40;;
11582;SDS011;34299;50.820;4.548;2022-09-09T09:03:32;4.63;;;1.63;;
11582;SDS011;34299;50.820;4.548;2022-09-09T09:06:13;5.27;;;1.30;;
11582;SDS011;34299;50.820;4.548;2022-09-09T09:08:47;3.70;;;2.13;;
11582;SDS011;34299;50.820;4.548;2022-09-09T09:11:18;6.80;;;1.70;;
11582;SDS011;34299;50.820;4.548;2022-09-09T09:13:48;4.30;;;2.00;;
11582;SDS011;34299;50.820;4.548;2022-09-09T09:16:22;2.57;;;1.50;;
11582;SDS011;34299;50.820;4.548;2022-09-09T09:18:51;3.53;;;1.27;;
11582;SDS011;34299;50.820;4.548;2022-09-09T09:21:20;3.73;;;1.70;;
11582;SDS011;34299;50.820;4.548;2022-09-09T09:23:51;4.40;;;1.50;;
11582;SDS011;34299;50.820;4.548;2022-09-09T09:26:21;2.00;;;1.50;;
11582;SDS011;34299;50.820;4.548;2022-09-09T09:28:48;5.13;;;2.10;;
11582;SDS011;34299;50.820;4.548;2022-09-09T09:31:16;4.23;;;1.70;;
11582;SDS011;34299;50.820;4.548;2022-09-09T09:33:47;3.27;;;1.80;;
11582;SDS011;34299;50.820;4.548;2022-09-09T09:36:15;5.50;;;1.90;;
11582;SDS011;34299;50.820;4.548;2022-09-09T09:38:52;7.00;;;1.77;;
11582;SDS011;34299;50.820;4.548;2022-09-09T09:41:30;2.47;;;1.40;;
11582;SDS011;34299;50.820;4.548;2022-09-09T09:43:57;5.67;;;1.97;;
11582;SDS011;34299;50.820;4.548;2022-09-09T09:46:26;5.83;;;1.67;;
11582;SDS011;34299;50.820;4.548;2022-09-09T09:48:58;3.70;;;1.70;;
11582;SDS011;34299;50.820;4.548;2022-09-09T09:51:26;3.27;;;1.93;;
11582;SDS011;34299;50.820;4.548;2022-09-09T09:53:54;6.60;;;2.00;;
11582;SDS011;34299;50.820;4.548;2022-09-09T09:56:30;4.93;;;2.47;;
11582;SDS011;34299;50.820;4.548;2022-09-09T09:58:57;7.87;;;2.00;;
11582;SDS011;34299;50.820;4.548;2022-09-09T10:01:25;6.07;;;2.17;;
11582;SDS011;34299;50.820;4.548;2022-09-09T10:03:53;2.73;;;1.77;;
11582;SDS011;34299;50.820;4.548;2022-09-09T10:06:30;5.40;;;1.80;;
11582;SDS011;34299;50.820;4.548;2022-09-09T10:08:58;5.23;;;2.30;;
11582;SDS011;34299;50.820;4.548;2022-09-09T10:11:30;6.83;;;1.97;;
11582;SDS011;34299;50.820;4.548;2022-09-09T10:14:01;9.53;;;2.20;;
11582;SDS011;34299;50.820;4.548;2022-09-09T10:16:37;8.00;;;1.90;;
11582;SDS011;34299;50.820;4.548;2022-09-09T10:19:09;3.20;;;2.00;;
11582;SDS011;34299;50.820;4.548;2022-09-09T10:21:45;2.17;;;1.57;;
11582;SDS011;34299;50.820;4.548;2022-09-09T10:24:20;8.27;;;2.00;;
11582;SDS011;34299;50.820;4.548;2022-09-09T10:26:50;4.10;;;1.97;;
11582;SDS011;34299;50.820;4.548;2022-09-09T10:29:22;5.57;;;2.53;;
11582;SDS011;34299;50.820;4.548;2022-09-09T10:31:54;4.67;;;2.23;;
11582;SDS011;34299;50.820;4.548;2022-09-09T10:34:30;4.73;;;1.97;;
11582;SDS011;34299;50.820;4.548;2022-09-09T10:37:01;4.67;;;1.70;;
11582;SDS011;34299;50.820;4.548;2022-09-09T10:39:33;5.03;;;1.90;;
11582;SDS011;34299;50.820;4.548;2022-09-09T10:42:03;5.67;;;1.80;;
11582;SDS011;34299;50.820;4.548;2022-09-09T10:44:50;5.40;;;2.20;;
11582;SDS011;34299;50.820;4.548;2022-09-09T10:47:25;4.43;;;2.10;;
11582;SDS011;34299;50.820;4.548;2022-09-09T10:50:03;8.70;;;2.60;;
11582;SDS011;34299;50.820;4.548;2022-09-09T10:52:35;2.97;;;1.60;;
11582;SDS011;34299;50.820;4.548;2022-09-09T10:55:10;5.67;;;2.47;;
11582;SDS011;34299;50.820;4.548;2022-09-09T10:57:41;4.40;;;1.53;;
11582;SDS011;34299;50.820;4.548;2022-09-09T11:00:14;5.80;;;2.13;;
11582;SDS011;34299;50.820;4.548;2022-09-09T11:02:42;3.00;;;1.43;;
11582;SDS011;34299;50.820;4.548;2022-09-09T11:05:12;2.50;;;1.70;;
11582;SDS011;34299;50.820;4.548;2022-09-09T11:07:44;6.50;;;2.30;;
11582;SDS011;34299;50.820;4.548;2022-09-09T11:10:16;5.97;;;2.60;;
11582;SDS011;34299;50.820;4.548;2022-09-09T11:12:45;6.00;;;2.33;;
11582;SDS011;34299;50.820;4.548;2022-09-09T11:15:14;6.97;;;2.40;;
11582;SDS011;34299;50.820;4.548;2022-09-09T11:17:44;3.27;;;1.70;;
11582;SDS011;34299;50.820;4.548;2022-09-09T11:20:14;2.57;;;1.70;;
11582;SDS011;34299;50.820;4.548;2022-09-09T11:22:44;4.77;;;1.70;;
11582;SDS011;34299;50.820;4.548;2022-09-09T11:25:15;3.70;;;1.67;;
11582;SDS011;34299;50.820;4.548;2022-09-09T11:27:44;4.63;;;1.63;;
11582;SDS011;34299;50.820;4.548;2022-09-09T11:30:19;5.57;;;1.60;;
11582;SDS011;34299;50.820;4.548;2022-09-09T11:33:00;5.40;;;2.03;;
11582;SDS011;34299;50.820;4.548;2022-09-09T11:35:31;4.77;;;1.50;;
11582;SDS011;34299;50.820;4.548;2022-09-09T11:38:15;5.63;;;1.47;;
11582;SDS011;34299;50.820;4.548;2022-09-09T11:40:43;5.17;;;2.00;;
11582;SDS011;34299;50.820;4.548;2022-09-09T11:43:12;2.13;;;1.47;;
11582;SDS011;34299;50.820;4.548;2022-09-09T11:45:39;2.73;;;1.47;;
11582;SDS011;34299;50.820;4.548;2022-09-09T11:48:21;2.87;;;1.37;;
11582;SDS011;34299;50.820;4.548;2022-09-09T11:50:57;4.53;;;1.57;;
11582;SDS011;34299;50.820;4.548;2022-09-09T11:53:25;5.03;;;1.70;;
11582;SDS011;34299;50.820;4.548;2022-09-09T11:56:06;3.67;;;1.50;;
11582;SDS011;34299;50.820;4.548;2022-09-09T11:58:38;4.00;;;1.60;;
11582;SDS011;34299;50.820;4.548;2022-09-09T12:01:13;3.17;;;0.97;;
11582;SDS011;34299;50.820;4.548;2022-09-09T12:03:41;5.90;;;1.50;;
11582;SDS011;34299;50.820;4.548;2022-09-09T12:06:10;5.90;;;1.30;;
11582;SDS011;34299;50.820;4.548;2022-09-09T12:08:40;3.37;;;1.00;;
11582;SDS011;34299;50.820;4.548;2022-09-09T12:11:08;3.67;;;1.60;;
11582;SDS011;34299;50.820;4.548;2022-09-09T12:13:36;3.30;;;1.30;;
11582;SDS011;34299;50.820;4.548;2022-09-09T12:16:03;4.00;;;1.83;;
11582;SDS011;34299;50.820;4.548;2022-09-09T12:18:32;3.77;;;1.60;;
11582;SDS011;34299;50.820;4.548;2022-09-09T12:21:02;4.70;;;1.40;;
11582;SDS011;34299;50.820;4.548;2022-09-09T12:23:35;3.17;;;1.73;;
11582;SDS011;34299;50.820;4.548;2022-09-09T12:26:16;5.77;;;1.70;;
11582;SDS011;34299;50.820;4.548;2022-09-09T12:28:50;2.87;;;1.23;;
11582;SDS011;34299;50.820;4.548;2022-09-09T12:31:20;3.80;;;1.40;;
11582;SDS011;34299;50.820;4.548;2022-09-09T12:33:49;1.30;;;1.20;;
11582;SDS011;34299;50.820;4.548;2022-09-09T12:36:18;2.67;;;1.37;;
11582;SDS011;34299;50.820;4.548;2022-09-09T12:38:46;2.63;;;1.27;;
11582;SDS011;34299;50.820;4.548;2022-09-09T12:41:26;2.33;;;1.60;;
11582;SDS011;34299;50.820;4.548;2022-09-09T12:44:03;3.40;;;1.53;;
11582;SDS011;34299;50.820;4.548;2022-09-09T12:46:32;2.87;;;1.30;;
11582;SDS011;34299;50.820;4.548;2022-09-09T12:49:01;1.63;;;1.53;;
11582;SDS011;34299;50.820;4.548;2022-09-09T12:51:30;1.63;;;1.10;;
11582;SDS011;34299;50.820;4.548;2022-09-09T12:53:58;2.90;;;1.20;;
11582;SDS011;34299;50.820;4.548;2022-09-09T12:56:27;3.00;;;1.20;;
11582;SDS011;34299;50.820;4.548;2022-09-09T12:58:56;2.33;;;1.10;;
11582;SDS011;34299;50.820;4.548;2022-09-09T13:01:25;2.40;;;1.40;;
11582;SDS011;34299;50.820;4.548;2022-09-09T13:03:53;2.90;;;0.90;;
11582;SDS011;34299;50.820;4.548;2022-09-09T13:06:21;1.87;;;0.90;;
11582;SDS011;34299;50.820;4.548;2022-09-09T13:08:49;4.77;;;1.37;;
11582;SDS011;34299;50.820;4.548;2022-09-09T13:11:16;4.03;;;1.20;;
11582;SDS011;34299;50.820;4.548;2022-09-09T13:13:50;1.57;;;1.20;;
11582;SDS011;34299;50.820;4.548;2022-09-09T13:16:19;3.37;;;1.43;;
11582;SDS011;34299;50.820;4.548;2022-09-09T13:18:46;6.60;;;1.70;;
11582;SDS011;34299;50.820;4.548;2022-09-09T13:21:14;3.73;;;1.10;;
11582;SDS011;34299;50.820;4.548;2022-09-09T13:23:41;3.00;;;1.20;;
11582;SDS011;34299;50.820;4.548;2022-09-09T13:26:21;3.33;;;1.30;;
11582;SDS011;34299;50.820;4.548;2022-09-09T13:28:50;2.03;;;1.10;;
11582;SDS011;34299;50.820;4.548;2022-09-09T13:31:20;3.80;;;1.10;;
11582;SDS011;34299;50.820;4.548;2022-09-09T13:33:47;2.03;;;1.10;;
11582;SDS011;34299;50.820;4.548;2022-09-09T13:36:14;3.33;;;1.23;;
11582;SDS011;34299;50.820;4.548;2022-09-09T13:38:52;1.43;;;0.87;;
11582;SDS011;34299;50.820;4.548;2022-09-09T13:41:20;1.57;;;0.80;;
11582;SDS011;34299;50.820;4.548;2022-09-09T13:43:48;1.23;;;0.73;;
11582;SDS011;34299;50.820;4.548;2022-09-09T13:46:28;1.30;;;0.80;;
11582;SDS011;34299;50.820;4.548;2022-09-09T13:48:57;3.33;;;1.23;;
11582;SDS011;34299;50.820;4.548;2022-09-09T13:51:28;3.57;;;1.23;;
11582;SDS011;34299;50.820;4.548;2022-09-09T13:53:56;1.70;;;0.90;;
11582;SDS011;34299;50.820;4.548;2022-09-09T13:56:24;2.27;;;0.80;;
11582;SDS011;34299;50.820;4.548;2022-09-09T13:58:51;2.83;;;0.90;;
11582;SDS011;34299;50.820;4.548;2022-09-09T14:01:18;0.97;;;0.63;;
11582;SDS011;34299;50.820;4.548;2022-09-09T14:03:46;1.33;;;1.10;;
11582;SDS011;34299;50.820;4.548;2022-09-09T14:06:14;1.63;;;0.83;;
11582;SDS011;34299;50.820;4.548;2022-09-09T14:08:41;2.00;;;1.00;;
11582;SDS011;34299;50.820;4.548;2022-09-09T14:11:11;2.90;;;1.20;;
11582;SDS011;34299;50.820;4.548;2022-09-09T14:13:39;2.07;;;1.10;;
11582;SDS011;34299;50.820;4.548;2022-09-09T14:16:06;2.37;;;1.17;;
11582;SDS011;34299;50.820;4.548;2022-09-09T14:18:33;1.47;;;1.13;;
11582;SDS011;34299;50.820;4.548;2022-09-09T14:21:02;2.87;;;1.30;;
11582;SDS011;34299;50.820;4.548;2022-09-09T14:23:29;2.67;;;0.97;;
11582;SDS011;34299;50.820;4.548;2022-09-09T14:25:57;2.23;;;1.07;;
11582;SDS011;34299;50.820;4.548;2022-09-09T14:28:24;4.17;;;1.00;;
11582;SDS011;34299;50.820;4.548;2022-09-09T14:30:51;1.67;;;1.27;;
11582;SDS011;34299;50.820;4.548;2022-09-09T14:33:18;3.60;;;1.20;;
11582;SDS011;34299;50.820;4.548;2022-09-09T14:35:46;1.40;;;1.00;;
11582;SDS011;34299;50.820;4.548;2022-09-09T14:38:15;1.87;;;1.10;;
11582;SDS011;34299;50.820;4.548;2022-09-09T14:40:44;2.57;;;1.30;;
11582;SDS011;34299;50.820;4.548;2022-09-09T14:43:12;2.53;;;1.10;;
11582;SDS011;34299;50.820;4.548;2022-09-09T14:45:40;1.20;;;1.10;;
11582;SDS011;34299;50.820;4.548;2022-09-09T14:48:08;1.20;;;1.00;;
11582;SDS011;34299;50.820;4.548;2022-09-09T14:50:35;1.97;;;1.40;;
11582;SDS011;34299;50.820;4.548;2022-09-09T14:53:05;3.93;;;1.30;;
11582;SDS011;34299;50.820;4.548;2022-09-09T14:55:33;2.30;;;1.33;;
11582;SDS011;34299;50.820;4.548;2022-09-09T14:58:00;4.40;;;1.30;;
11582;SDS011;34299;50.820;4.548;2022-09-09T15:00:28;4.20;;;1.10;;
11582;SDS011;34299;50.820;4.548;2022-09-09T15:02:55;3.17;;;1.30;;
11582;SDS011;34299;50.820;4.548;2022-09-09T15:05:22;1.30;;;0.90;;